Current Weather

Napa County

Napa, California (KAPC)

Report from: Friday, April 19, 2024 3:14 AM PDT
Current time: Friday, April 19, 2024 3:40 AM PDT

Nearby weather – Weather history – Daily summaries
Weather forecast

Temperature10.6°C (51.1°F)
Dew point9.4°C (48.9°F)
Winds 4 kts (2.1 m/s, 4.6 mph) Northwest (310°)
Visibility8 mi. (12.9 km)
Clouds Ceiling: Overcast 900 ft. (274 m)
Altimeter29.94 in.Hg (1014 mB)
Relative humidity92 %
Density altitude-380 ft. (-116 m)
Remarks Fully automated report
Automated weather observing station with precipitation discriminator
Flight conditions Instrument Meteorological Conditions
Raw dataKAPC 191014Z AUTO 31004KT 8SM OVC009 11/09 A2994 RMK AO2 T01060094
An error has occurred. This application may no longer respond until reloaded. Reload 🗙